Terminal Aerodrome Forecast
Issued by NWS

Home | Current Version | Previous Version | Text Only | Print | Product List | Glossary On
Versions: 1 2 3 4 5 6 7 8 9 10 11 12 13 14 15 16 17 18 19 20 21 22 23 24 25 26 27
000
FTUS41 KBOX 301739
TAFHYA
TAF
KHYA 301739Z 3018/0118 03008KT 2SM -RA BR OVC003
     FM302200 04007KT 3SM -RA BR OVC003
     FM010300 04008KT 3SM -DZ BR OVC003
     FM011200 04011KT 2SM -RA BR OVC008
     FM011600 04012G20KT 2SM -RA BR OVC008=

USA.gov is the U.S. government's official web portal to all federal, state and local government web resources and services.